sensor_id;sensor_type;location;lat;lon;timestamp;P1;durP1;ratioP1;P2;durP2;ratioP2
8584;SDS011;7180;52.742;11.420;2022-09-03T00:02:08;5.10;;;4.90;;
8584;SDS011;7180;52.742;11.420;2022-09-03T00:04:38;5.20;;;4.90;;
8584;SDS011;7180;52.742;11.420;2022-09-03T00:07:10;5.20;;;5.00;;
8584;SDS011;7180;52.742;11.420;2022-09-03T00:09:49;4.90;;;4.70;;
8584;SDS011;7180;52.742;11.420;2022-09-03T00:12:18;4.90;;;4.60;;
8584;SDS011;7180;52.742;11.420;2022-09-03T00:17:14;5.20;;;4.90;;
8584;SDS011;7180;52.742;11.420;2022-09-03T00:19:43;4.90;;;4.50;;
8584;SDS011;7180;52.742;11.420;2022-09-03T00:22:15;4.73;;;4.33;;
8584;SDS011;7180;52.742;11.420;2022-09-03T00:24:41;4.87;;;4.57;;
8584;SDS011;7180;52.742;11.420;2022-09-03T00:27:12;4.47;;;4.27;;
8584;SDS011;7180;52.742;11.420;2022-09-03T00:29:40;4.83;;;4.53;;
8584;SDS011;7180;52.742;11.420;2022-09-03T00:32:12;4.73;;;4.50;;
8584;SDS011;7180;52.742;11.420;2022-09-03T00:34:41;4.60;;;4.33;;
8584;SDS011;7180;52.742;11.420;2022-09-03T00:37:08;4.90;;;4.60;;
8584;SDS011;7180;52.742;11.420;2022-09-03T00:39:34;4.70;;;4.50;;
8584;SDS011;7180;52.742;11.420;2022-09-03T00:47:21;5.10;;;4.80;;
8584;SDS011;7180;52.742;11.420;2022-09-03T00:50:14;5.20;;;4.80;;
8584;SDS011;7180;52.742;11.420;2022-09-03T00:55:10;5.30;;;5.00;;
8584;SDS011;7180;52.742;11.420;2022-09-03T00:57:56;5.13;;;4.93;;
8584;SDS011;7180;52.742;11.420;2022-09-03T01:00:27;5.20;;;4.90;;
8584;SDS011;7180;52.742;11.420;2022-09-03T01:02:59;4.63;;;4.40;;
8584;SDS011;7180;52.742;11.420;2022-09-03T01:08:06;4.80;;;4.50;;
8584;SDS011;7180;52.742;11.420;2022-09-03T01:13:06;5.53;;;5.03;;
8584;SDS011;7180;52.742;11.420;2022-09-03T01:15:38;4.90;;;4.60;;
8584;SDS011;7180;52.742;11.420;2022-09-03T01:18:16;4.70;;;4.50;;
8584;SDS011;7180;52.742;11.420;2022-09-03T01:20:48;5.10;;;4.70;;
8584;SDS011;7180;52.742;11.420;2022-09-03T01:31:15;4.90;;;4.50;;
8584;SDS011;7180;52.742;11.420;2022-09-03T01:33:49;4.50;;;4.30;;
8584;SDS011;7180;52.742;11.420;2022-09-03T01:36:28;4.50;;;4.30;;
8584;SDS011;7180;52.742;11.420;2022-09-03T01:38:58;4.67;;;4.47;;
8584;SDS011;7180;52.742;11.420;2022-09-03T01:41:27;4.90;;;4.60;;
8584;SDS011;7180;52.742;11.420;2022-09-03T01:44:14;5.10;;;4.60;;
8584;SDS011;7180;52.742;11.420;2022-09-03T01:46:41;4.77;;;4.47;;
8584;SDS011;7180;52.742;11.420;2022-09-03T01:49:13;5.23;;;4.87;;
8584;SDS011;7180;52.742;11.420;2022-09-03T01:51:44;5.07;;;4.73;;
8584;SDS011;7180;52.742;11.420;2022-09-03T01:54:25;4.80;;;4.60;;
8584;SDS011;7180;52.742;11.420;2022-09-03T01:59:43;5.03;;;4.67;;
8584;SDS011;7180;52.742;11.420;2022-09-03T02:02:20;5.00;;;4.70;;
8584;SDS011;7180;52.742;11.420;2022-09-03T02:04:55;4.60;;;4.40;;
8584;SDS011;7180;52.742;11.420;2022-09-03T02:07:21;5.50;;;5.10;;
8584;SDS011;7180;52.742;11.420;2022-09-03T02:09:47;5.03;;;4.73;;
8584;SDS011;7180;52.742;11.420;2022-09-03T02:12:15;5.07;;;4.70;;
8584;SDS011;7180;52.742;11.420;2022-09-03T02:14:42;4.80;;;4.60;;
8584;SDS011;7180;52.742;11.420;2022-09-03T02:17:07;5.20;;;4.90;;
8584;SDS011;7180;52.742;11.420;2022-09-03T02:19:34;5.40;;;5.10;;
8584;SDS011;7180;52.742;11.420;2022-09-03T02:22:01;5.10;;;4.73;;
8584;SDS011;7180;52.742;11.420;2022-09-03T02:24:26;5.30;;;5.00;;
8584;SDS011;7180;52.742;11.420;2022-09-03T02:26:52;5.23;;;4.93;;
8584;SDS011;7180;52.742;11.420;2022-09-03T02:29:17;5.27;;;4.97;;
8584;SDS011;7180;52.742;11.420;2022-09-03T02:31:43;5.30;;;5.00;;
8584;SDS011;7180;52.742;11.420;2022-09-03T02:34:08;5.50;;;5.20;;
8584;SDS011;7180;52.742;11.420;2022-09-03T02:36:37;5.57;;;5.23;;
8584;SDS011;7180;52.742;11.420;2022-09-03T02:39:04;5.30;;;5.00;;
8584;SDS011;7180;52.742;11.420;2022-09-03T02:41:29;5.10;;;4.80;;
8584;SDS011;7180;52.742;11.420;2022-09-03T02:44:08;5.30;;;4.90;;
8584;SDS011;7180;52.742;11.420;2022-09-03T02:46:43;5.20;;;4.90;;
8584;SDS011;7180;52.742;11.420;2022-09-03T02:49:09;5.30;;;5.00;;
8584;SDS011;7180;52.742;11.420;2022-09-03T02:51:36;5.07;;;4.87;;
8584;SDS011;7180;52.742;11.420;2022-09-03T02:54:01;5.20;;;4.90;;
8584;SDS011;7180;52.742;11.420;2022-09-03T02:56:27;5.70;;;5.40;;
8584;SDS011;7180;52.742;11.420;2022-09-03T02:58:52;5.57;;;5.23;;
8584;SDS011;7180;52.742;11.420;2022-09-03T03:01:18;5.80;;;5.40;;
8584;SDS011;7180;52.742;11.420;2022-09-03T03:03:43;5.40;;;5.00;;
8584;SDS011;7180;52.742;11.420;2022-09-03T03:06:08;5.40;;;5.03;;
8584;SDS011;7180;52.742;11.420;2022-09-03T03:08:34;5.07;;;4.77;;
8584;SDS011;7180;52.742;11.420;2022-09-03T03:10:59;5.00;;;4.70;;
8584;SDS011;7180;52.742;11.420;2022-09-03T03:13:25;5.00;;;4.70;;
8584;SDS011;7180;52.742;11.420;2022-09-03T03:15:50;5.00;;;4.70;;
8584;SDS011;7180;52.742;11.420;2022-09-03T03:18:15;5.60;;;5.30;;
8584;SDS011;7180;52.742;11.420;2022-09-03T03:20:41;5.00;;;4.70;;
8584;SDS011;7180;52.742;11.420;2022-09-03T03:23:07;5.20;;;4.90;;
8584;SDS011;7180;52.742;11.420;2022-09-03T03:25:36;4.90;;;4.70;;
8584;SDS011;7180;52.742;11.420;2022-09-03T03:28:01;5.13;;;4.73;;
8584;SDS011;7180;52.742;11.420;2022-09-03T03:30:28;4.87;;;4.57;;
8584;SDS011;7180;52.742;11.420;2022-09-03T03:32:53;5.13;;;4.63;;
8584;SDS011;7180;52.742;11.420;2022-09-03T03:35:19;4.77;;;4.43;;
8584;SDS011;7180;52.742;11.420;2022-09-03T03:37:44;5.77;;;5.13;;
8584;SDS011;7180;52.742;11.420;2022-09-03T03:40:09;5.60;;;5.30;;
8584;SDS011;7180;52.742;11.420;2022-09-03T03:42:35;5.07;;;4.77;;
8584;SDS011;7180;52.742;11.420;2022-09-03T03:45:00;5.33;;;4.93;;
8584;SDS011;7180;52.742;11.420;2022-09-03T03:47:26;5.37;;;5.07;;
8584;SDS011;7180;52.742;11.420;2022-09-03T03:49:52;5.30;;;5.00;;
8584;SDS011;7180;52.742;11.420;2022-09-03T03:52:17;5.03;;;4.70;;
8584;SDS011;7180;52.742;11.420;2022-09-03T03:54:42;5.30;;;4.90;;
8584;SDS011;7180;52.742;11.420;2022-09-03T03:57:07;5.50;;;5.20;;
8584;SDS011;7180;52.742;11.420;2022-09-03T03:59:32;5.10;;;4.80;;
8584;SDS011;7180;52.742;11.420;2022-09-03T04:01:57;5.20;;;4.90;;
8584;SDS011;7180;52.742;11.420;2022-09-03T04:04:22;5.10;;;4.80;;
8584;SDS011;7180;52.742;11.420;2022-09-03T04:06:48;5.23;;;4.77;;
8584;SDS011;7180;52.742;11.420;2022-09-03T04:09:13;5.30;;;4.83;;
8584;SDS011;7180;52.742;11.420;2022-09-03T04:11:38;5.20;;;4.80;;
8584;SDS011;7180;52.742;11.420;2022-09-03T04:14:03;5.35;;;5.00;;
8584;SDS011;7180;52.742;11.420;2022-09-03T04:16:28;5.60;;;5.20;;
8584;SDS011;7180;52.742;11.420;2022-09-03T04:18:54;5.43;;;5.13;;
8584;SDS011;7180;52.742;11.420;2022-09-03T04:21:21;5.63;;;5.23;;
8584;SDS011;7180;52.742;11.420;2022-09-03T04:23:47;5.73;;;5.43;;
8584;SDS011;7180;52.742;11.420;2022-09-03T04:26:16;5.53;;;5.23;;
8584;SDS011;7180;52.742;11.420;2022-09-03T04:28:42;5.70;;;5.40;;
8584;SDS011;7180;52.742;11.420;2022-09-03T04:31:09;5.60;;;5.30;;
8584;SDS011;7180;52.742;11.420;2022-09-03T04:33:35;5.60;;;5.30;;
8584;SDS011;7180;52.742;11.420;2022-09-03T04:36:02;5.90;;;5.43;;
8584;SDS011;7180;52.742;11.420;2022-09-03T04:38:29;5.30;;;5.00;;
8584;SDS011;7180;52.742;11.420;2022-09-03T04:40:55;5.30;;;5.00;;
8584;SDS011;7180;52.742;11.420;2022-09-03T04:43:20;5.43;;;5.03;;
8584;SDS011;7180;52.742;11.420;2022-09-03T04:45:45;6.10;;;4.82;;
8584;SDS011;7180;52.742;11.420;2022-09-03T04:48:11;5.30;;;4.90;;
8584;SDS011;7180;52.742;11.420;2022-09-03T04:50:37;5.50;;;5.10;;
8584;SDS011;7180;52.742;11.420;2022-09-03T04:53:03;5.40;;;5.10;;
8584;SDS011;7180;52.742;11.420;2022-09-03T04:55:34;5.17;;;4.87;;
8584;SDS011;7180;52.742;11.420;2022-09-03T04:58:00;5.10;;;4.80;;
8584;SDS011;7180;52.742;11.420;2022-09-03T05:00:25;5.07;;;4.77;;
8584;SDS011;7180;52.742;11.420;2022-09-03T05:02:50;5.13;;;4.78;;
8584;SDS011;7180;52.742;11.420;2022-09-03T05:05:16;4.83;;;4.63;;
8584;SDS011;7180;52.742;11.420;2022-09-03T05:07:41;5.00;;;4.60;;
8584;SDS011;7180;52.742;11.420;2022-09-03T05:10:07;4.90;;;4.60;;
8584;SDS011;7180;52.742;11.420;2022-09-03T05:12:32;4.90;;;4.60;;
8584;SDS011;7180;52.742;11.420;2022-09-03T05:14:58;4.43;;;4.23;;
8584;SDS011;7180;52.742;11.420;2022-09-03T05:17:24;4.70;;;4.40;;
8584;SDS011;7180;52.742;11.420;2022-09-03T05:19:50;4.97;;;4.67;;
8584;SDS011;7180;52.742;11.420;2022-09-03T05:22:15;5.43;;;5.00;;
8584;SDS011;7180;52.742;11.420;2022-09-03T05:24:45;4.97;;;4.67;;
8584;SDS011;7180;52.742;11.420;2022-09-03T05:27:10;5.53;;;5.03;;
8584;SDS011;7180;52.742;11.420;2022-09-03T05:29:35;5.03;;;4.70;;
8584;SDS011;7180;52.742;11.420;2022-09-03T05:32:00;5.20;;;4.90;;
8584;SDS011;7180;52.742;11.420;2022-09-03T05:34:26;4.97;;;4.60;;
8584;SDS011;7180;52.742;11.420;2022-09-03T05:36:51;5.13;;;4.60;;
8584;SDS011;7180;52.742;11.420;2022-09-03T05:39:17;5.30;;;4.87;;
8584;SDS011;7180;52.742;11.420;2022-09-03T05:41:42;5.20;;;4.90;;
8584;SDS011;7180;52.742;11.420;2022-09-03T05:44:07;5.53;;;5.13;;
8584;SDS011;7180;52.742;11.420;2022-09-03T05:46:32;5.38;;;5.00;;
8584;SDS011;7180;52.742;11.420;2022-09-03T05:49:01;5.20;;;4.80;;
8584;SDS011;7180;52.742;11.420;2022-09-03T05:51:27;5.07;;;4.77;;
8584;SDS011;7180;52.742;11.420;2022-09-03T05:53:53;4.83;;;4.57;;
8584;SDS011;7180;52.742;11.420;2022-09-03T05:56:20;4.77;;;4.47;;
8584;SDS011;7180;52.742;11.420;2022-09-03T05:58:46;5.23;;;4.83;;
8584;SDS011;7180;52.742;11.420;2022-09-03T06:01:16;5.57;;;4.83;;
8584;SDS011;7180;52.742;11.420;2022-09-03T06:03:42;4.83;;;4.50;;
8584;SDS011;7180;52.742;11.420;2022-09-03T06:06:07;5.03;;;4.73;;
8584;SDS011;7180;52.742;11.420;2022-09-03T06:08:33;4.90;;;4.60;;
8584;SDS011;7180;52.742;11.420;2022-09-03T06:10:59;5.30;;;5.00;;
8584;SDS011;7180;52.742;11.420;2022-09-03T06:13:24;5.60;;;5.20;;
8584;SDS011;7180;52.742;11.420;2022-09-03T06:15:49;4.97;;;4.73;;
8584;SDS011;7180;52.742;11.420;2022-09-03T06:18:14;5.68;;;5.38;;
8584;SDS011;7180;52.742;11.420;2022-09-03T06:20:40;5.50;;;5.20;;
8584;SDS011;7180;52.742;11.420;2022-09-03T06:23:05;5.40;;;5.10;;
8584;SDS011;7180;52.742;11.420;2022-09-03T06:25:30;5.90;;;5.40;;
8584;SDS011;7180;52.742;11.420;2022-09-03T06:27:56;5.63;;;5.33;;
8584;SDS011;7180;52.742;11.420;2022-09-03T06:30:21;5.70;;;5.40;;
8584;SDS011;7180;52.742;11.420;2022-09-03T06:32:48;5.20;;;4.90;;
8584;SDS011;7180;52.742;11.420;2022-09-03T06:35:16;5.50;;;5.10;;
8584;SDS011;7180;52.742;11.420;2022-09-03T06:37:41;5.20;;;5.00;;
8584;SDS011;7180;52.742;11.420;2022-09-03T06:40:07;5.77;;;5.40;;
8584;SDS011;7180;52.742;11.420;2022-09-03T06:42:36;5.60;;;5.30;;
8584;SDS011;7180;52.742;11.420;2022-09-03T06:45:02;5.70;;;5.30;;
8584;SDS011;7180;52.742;11.420;2022-09-03T06:47:28;5.57;;;5.20;;
8584;SDS011;7180;52.742;11.420;2022-09-03T06:49:53;5.07;;;4.82;;
8584;SDS011;7180;52.742;11.420;2022-09-03T06:52:18;5.70;;;5.30;;
8584;SDS011;7180;52.742;11.420;2022-09-03T06:54:43;5.72;;;5.20;;
8584;SDS011;7180;52.742;11.420;2022-09-03T06:57:08;5.20;;;4.90;;
8584;SDS011;7180;52.742;11.420;2022-09-03T06:59:33;5.50;;;5.20;;
8584;SDS011;7180;52.742;11.420;2022-09-03T07:01:58;5.00;;;4.80;;
8584;SDS011;7180;52.742;11.420;2022-09-03T07:04:24;5.50;;;5.20;;
8584;SDS011;7180;52.742;11.420;2022-09-03T07:06:51;5.27;;;4.97;;
8584;SDS011;7180;52.742;11.420;2022-09-03T07:09:16;5.40;;;5.10;;
8584;SDS011;7180;52.742;11.420;2022-09-03T07:11:42;5.10;;;4.80;;
8584;SDS011;7180;52.742;11.420;2022-09-03T07:14:11;5.23;;;5.00;;
8584;SDS011;7180;52.742;11.420;2022-09-03T07:16:36;5.20;;;4.90;;
8584;SDS011;7180;52.742;11.420;2022-09-03T07:19:03;5.37;;;5.07;;
8584;SDS011;7180;52.742;11.420;2022-09-03T07:21:30;5.77;;;5.27;;
8584;SDS011;7180;52.742;11.420;2022-09-03T07:23:56;5.40;;;5.10;;
8584;SDS011;7180;52.742;11.420;2022-09-03T07:26:28;5.30;;;5.00;;
8584;SDS011;7180;52.742;11.420;2022-09-03T07:28:54;5.30;;;5.00;;
8584;SDS011;7180;52.742;11.420;2022-09-03T07:31:21;5.30;;;5.00;;
8584;SDS011;7180;52.742;11.420;2022-09-03T07:33:49;5.07;;;4.87;;
8584;SDS011;7180;52.742;11.420;2022-09-03T07:36:15;5.30;;;4.90;;
8584;SDS011;7180;52.742;11.420;2022-09-03T07:38:41;5.00;;;4.70;;
8584;SDS011;7180;52.742;11.420;2022-09-03T07:41:07;5.23;;;4.83;;
8584;SDS011;7180;52.742;11.420;2022-09-03T07:43:37;5.23;;;5.00;;
8584;SDS011;7180;52.742;11.420;2022-09-03T07:46:04;4.83;;;4.63;;
8584;SDS011;7180;52.742;11.420;2022-09-03T07:48:30;5.73;;;5.33;;
8584;SDS011;7180;52.742;11.420;2022-09-03T07:50:59;4.90;;;4.60;;
8584;SDS011;7180;52.742;11.420;2022-09-03T07:53:25;5.37;;;4.97;;
8584;SDS011;7180;52.742;11.420;2022-09-03T07:55:50;5.50;;;5.10;;
8584;SDS011;7180;52.742;11.420;2022-09-03T07:58:16;5.30;;;5.00;;
8584;SDS011;7180;52.742;11.420;2022-09-03T08:00:41;4.60;;;4.40;;
8584;SDS011;7180;52.742;11.420;2022-09-03T08:03:07;5.00;;;4.70;;
8584;SDS011;7180;52.742;11.420;2022-09-03T08:05:33;4.80;;;4.50;;
8584;SDS011;7180;52.742;11.420;2022-09-03T08:07:59;5.10;;;4.80;;
8584;SDS011;7180;52.742;11.420;2022-09-03T08:10:25;5.13;;;4.80;;
8584;SDS011;7180;52.742;11.420;2022-09-03T08:12:52;5.40;;;5.00;;
8584;SDS011;7180;52.742;11.420;2022-09-03T08:15:17;4.80;;;4.60;;
8584;SDS011;7180;52.742;11.420;2022-09-03T08:17:43;5.40;;;5.00;;
8584;SDS011;7180;52.742;11.420;2022-09-03T08:20:08;4.83;;;4.53;;
8584;SDS011;7180;52.742;11.420;2022-09-03T08:22:34;5.37;;;4.97;;
8584;SDS011;7180;52.742;11.420;2022-09-03T08:24:59;4.68;;;4.47;;
8584;SDS011;7180;52.742;11.420;2022-09-03T08:27:24;5.00;;;4.70;;
8584;SDS011;7180;52.742;11.420;2022-09-03T08:29:51;4.87;;;4.57;;
8584;SDS011;7180;52.742;11.420;2022-09-03T08:32:17;4.97;;;4.60;;
8584;SDS011;7180;52.742;11.420;2022-09-03T08:34:42;5.03;;;4.78;;
8584;SDS011;7180;52.742;11.420;2022-09-03T08:37:07;4.72;;;4.47;;
8584;SDS011;7180;52.742;11.420;2022-09-03T08:39:37;5.07;;;4.67;;
8584;SDS011;7180;52.742;11.420;2022-09-03T08:42:18;5.03;;;4.57;;
8584;SDS011;7180;52.742;11.420;2022-09-03T08:44:46;5.27;;;4.80;;
8584;SDS011;7180;52.742;11.420;2022-09-03T08:47:21;4.70;;;4.40;;
8584;SDS011;7180;52.742;11.420;2022-09-03T08:49:54;4.60;;;4.40;;
8584;SDS011;7180;52.742;11.420;2022-09-03T08:52:25;4.83;;;4.53;;
8584;SDS011;7180;52.742;11.420;2022-09-03T08:54:54;4.97;;;4.70;;
8584;SDS011;7180;52.742;11.420;2022-09-03T08:57:21;4.70;;;4.50;;
8584;SDS011;7180;52.742;11.420;2022-09-03T08:59:48;4.50;;;4.30;;
8584;SDS011;7180;52.742;11.420;2022-09-03T09:07:10;4.80;;;4.50;;
8584;SDS011;7180;52.742;11.420;2022-09-03T09:09:46;4.70;;;4.40;;
8584;SDS011;7180;52.742;11.420;2022-09-03T09:15:18;4.80;;;4.60;;
8584;SDS011;7180;52.742;11.420;2022-09-03T09:17:41;4.60;;;4.40;;
8584;SDS011;7180;52.742;11.420;2022-09-03T09:20:18;5.10;;;4.70;;
8584;SDS011;7180;52.742;11.420;2022-09-03T09:22:46;4.90;;;4.60;;
8584;SDS011;7180;52.742;11.420;2022-09-03T09:25:18;5.30;;;4.93;;
8584;SDS011;7180;52.742;11.420;2022-09-03T09:27:52;4.80;;;4.50;;
8584;SDS011;7180;52.742;11.420;2022-09-03T09:30:18;4.73;;;4.53;;
8584;SDS011;7180;52.742;11.420;2022-09-03T09:32:44;4.43;;;4.10;;
8584;SDS011;7180;52.742;11.420;2022-09-03T09:35:11;4.50;;;4.20;;
8584;SDS011;7180;52.742;11.420;2022-09-03T09:37:46;4.50;;;4.30;;
8584;SDS011;7180;52.742;11.420;2022-09-03T09:40:20;4.60;;;4.40;;
8584;SDS011;7180;52.742;11.420;2022-09-03T09:42:46;4.70;;;4.40;;
8584;SDS011;7180;52.742;11.420;2022-09-03T09:45:11;4.53;;;4.20;;
8584;SDS011;7180;52.742;11.420;2022-09-03T09:47:37;4.63;;;4.40;;
8584;SDS011;7180;52.742;11.420;2022-09-03T09:50:13;4.90;;;4.70;;
8584;SDS011;7180;52.742;11.420;2022-09-03T09:52:39;4.90;;;4.60;;
8584;SDS011;7180;52.742;11.420;2022-09-03T09:55:25;5.60;;;5.20;;
8584;SDS011;7180;52.742;11.420;2022-09-03T09:57:52;4.70;;;4.50;;
8584;SDS011;7180;52.742;11.420;2022-09-03T10:00:17;4.80;;;4.40;;
8584;SDS011;7180;52.742;11.420;2022-09-03T10:02:49;4.77;;;4.47;;
8584;SDS011;7180;52.742;11.420;2022-09-03T10:05:19;4.53;;;4.33;;
8584;SDS011;7180;52.742;11.420;2022-09-03T10:07:58;4.17;;;3.97;;
8584;SDS011;7180;52.742;11.420;2022-09-03T10:10:23;6.13;;;5.20;;
8584;SDS011;7180;52.742;11.420;2022-09-03T10:23:21;4.80;;;4.50;;
8584;SDS011;7180;52.742;11.420;2022-09-03T10:26:01;5.37;;;4.30;;
8584;SDS011;7180;52.742;11.420;2022-09-03T10:28:34;4.33;;;4.03;;
8584;SDS011;7180;52.742;11.420;2022-09-03T10:33:43;4.43;;;4.00;;
8584;SDS011;7180;52.742;11.420;2022-09-03T10:36:27;4.13;;;3.83;;
8584;SDS011;7180;52.742;11.420;2022-09-03T10:39:01;4.57;;;4.17;;
8584;SDS011;7180;52.742;11.420;2022-09-03T10:41:32;4.53;;;4.07;;
8584;SDS011;7180;52.742;11.420;2022-09-03T10:46:40;4.70;;;4.40;;
8584;SDS011;7180;52.742;11.420;2022-09-03T10:49:10;5.13;;;4.17;;
8584;SDS011;7180;52.742;11.420;2022-09-03T10:51:42;4.13;;;3.93;;
8584;SDS011;7180;52.742;11.420;2022-09-03T10:54:17;4.40;;;4.17;;
8584;SDS011;7180;52.742;11.420;2022-09-03T11:02:17;5.67;;;4.20;;
8584;SDS011;7180;52.742;11.420;2022-09-03T11:07:20;4.10;;;3.90;;
8584;SDS011;7180;52.742;11.420;2022-09-03T11:09:50;4.83;;;4.40;;
8584;SDS011;7180;52.742;11.420;2022-09-03T11:12:19;5.37;;;4.07;;
8584;SDS011;7180;52.742;11.420;2022-09-03T11:15:08;4.03;;;3.83;;
8584;SDS011;7180;52.742;11.420;2022-09-03T11:17:45;4.40;;;4.07;;
8584;SDS011;7180;52.742;11.420;2022-09-03T11:22:38;4.63;;;4.20;;
8584;SDS011;7180;52.742;11.420;2022-09-03T11:25:03;4.37;;;4.17;;
8584;SDS011;7180;52.742;11.420;2022-09-03T11:30:06;4.97;;;4.10;;
8584;SDS011;7180;52.742;11.420;2022-09-03T11:32:51;11.17;;;4.20;;
8584;SDS011;7180;52.742;11.420;2022-09-03T11:35:26;4.30;;;4.00;;
8584;SDS011;7180;52.742;11.420;2022-09-03T11:37:53;4.50;;;4.20;;
8584;SDS011;7180;52.742;11.420;2022-09-03T11:40:19;5.50;;;5.00;;
8584;SDS011;7180;52.742;11.420;2022-09-03T11:42:46;5.10;;;4.80;;
8584;SDS011;7180;52.742;11.420;2022-09-03T11:45:19;4.20;;;4.00;;
8584;SDS011;7180;52.742;11.420;2022-09-03T11:47:45;4.50;;;4.20;;
8584;SDS011;7180;52.742;11.420;2022-09-03T11:52:46;4.10;;;3.70;;
8584;SDS011;7180;52.742;11.420;2022-09-03T11:55:11;3.63;;;3.50;;
8584;SDS011;7180;52.742;11.420;2022-09-03T11:57:40;3.83;;;3.63;;
8584;SDS011;7180;52.742;11.420;2022-09-03T12:00:14;3.80;;;3.50;;
8584;SDS011;7180;52.742;11.420;2022-09-03T12:02:54;4.80;;;4.40;;
8584;SDS011;7180;52.742;11.420;2022-09-03T12:05:35;4.03;;;3.83;;
8584;SDS011;7180;52.742;11.420;2022-09-03T12:10:50;5.10;;;4.90;;
8584;SDS011;7180;52.742;11.420;2022-09-03T12:13:20;4.80;;;4.40;;
8584;SDS011;7180;52.742;11.420;2022-09-03T12:18:32;4.60;;;4.30;;
8584;SDS011;7180;52.742;11.420;2022-09-03T12:21:00;4.97;;;4.60;;
8584;SDS011;7180;52.742;11.420;2022-09-03T12:23:33;3.67;;;3.47;;
8584;SDS011;7180;52.742;11.420;2022-09-03T12:26:08;4.70;;;4.40;;
8584;SDS011;7180;52.742;11.420;2022-09-03T12:28:39;4.90;;;4.30;;
8584;SDS011;7180;52.742;11.420;2022-09-03T12:31:15;4.40;;;4.00;;
8584;SDS011;7180;52.742;11.420;2022-09-03T12:33:51;3.90;;;3.70;;
8584;SDS011;7180;52.742;11.420;2022-09-03T12:36:18;4.70;;;4.40;;
8584;SDS011;7180;52.742;11.420;2022-09-03T12:38:43;5.63;;;5.23;;
8584;SDS011;7180;52.742;11.420;2022-09-03T12:41:25;4.63;;;4.37;;
8584;SDS011;7180;52.742;11.420;2022-09-03T12:43:55;4.40;;;4.20;;
8584;SDS011;7180;52.742;11.420;2022-09-03T12:46:21;4.20;;;4.00;;
8584;SDS011;7180;52.742;11.420;2022-09-03T12:48:53;3.53;;;3.30;;
8584;SDS011;7180;52.742;11.420;2022-09-03T12:51:19;4.83;;;4.63;;
8584;SDS011;7180;52.742;11.420;2022-09-03T12:53:45;3.90;;;3.60;;
8584;SDS011;7180;52.742;11.420;2022-09-03T12:56:10;4.57;;;4.10;;
8584;SDS011;7180;52.742;11.420;2022-09-03T12:59:00;4.30;;;4.00;;
8584;SDS011;7180;52.742;11.420;2022-09-03T13:01:25;4.30;;;4.10;;
8584;SDS011;7180;52.742;11.420;2022-09-03T13:03:52;4.67;;;4.37;;
8584;SDS011;7180;52.742;11.420;2022-09-03T13:06:26;4.80;;;4.47;;
8584;SDS011;7180;52.742;11.420;2022-09-03T13:08:59;4.10;;;3.90;;
8584;SDS011;7180;52.742;11.420;2022-09-03T13:11:26;4.40;;;4.10;;
8584;SDS011;7180;52.742;11.420;2022-09-03T13:14:13;4.77;;;4.50;;
8584;SDS011;7180;52.742;11.420;2022-09-03T13:21:33;5.30;;;5.10;;
8584;SDS011;7180;52.742;11.420;2022-09-03T13:26:33;4.70;;;4.50;;
8584;SDS011;7180;52.742;11.420;2022-09-03T13:29:24;4.13;;;3.90;;
8584;SDS011;7180;52.742;11.420;2022-09-03T13:31:54;4.13;;;3.87;;
8584;SDS011;7180;52.742;11.420;2022-09-03T13:34:23;5.20;;;4.90;;
8584;SDS011;7180;52.742;11.420;2022-09-03T13:36:55;4.47;;;4.20;;
8584;SDS011;7180;52.742;11.420;2022-09-03T13:39:34;6.50;;;4.10;;
8584;SDS011;7180;52.742;11.420;2022-09-03T13:42:04;4.70;;;4.40;;
8584;SDS011;7180;52.742;11.420;2022-09-03T13:47:25;5.20;;;4.90;;
8584;SDS011;7180;52.742;11.420;2022-09-03T13:49:53;3.93;;;3.70;;
8584;SDS011;7180;52.742;11.420;2022-09-03T13:52:49;4.50;;;4.30;;
8584;SDS011;7180;52.742;11.420;2022-09-03T13:55:19;3.90;;;3.70;;
8584;SDS011;7180;52.742;11.420;2022-09-03T13:57:55;5.33;;;4.83;;
8584;SDS011;7180;52.742;11.420;2022-09-03T14:00:44;4.10;;;3.90;;
8584;SDS011;7180;52.742;11.420;2022-09-03T14:03:51;4.30;;;4.10;;
8584;SDS011;7180;52.742;11.420;2022-09-03T14:06:12;3.90;;;3.70;;
8584;SDS011;7180;52.742;11.420;2022-09-03T14:16:55;3.97;;;3.67;;
8584;SDS011;7180;52.742;11.420;2022-09-03T14:19:01;5.50;;;5.13;;
8584;SDS011;7180;52.742;11.420;2022-09-03T14:21:28;4.07;;;3.77;;
8584;SDS011;7180;52.742;11.420;2022-09-03T14:24:00;4.30;;;4.10;;
8584;SDS011;7180;52.742;11.420;2022-09-03T14:26:29;4.00;;;3.80;;
8584;SDS011;7180;52.742;11.420;2022-09-03T14:28:59;3.97;;;3.77;;
8584;SDS011;7180;52.742;11.420;2022-09-03T14:34:02;4.20;;;4.00;;
8584;SDS011;7180;52.742;11.420;2022-09-03T14:36:34;3.90;;;3.70;;
8584;SDS011;7180;52.742;11.420;2022-09-03T14:39:06;3.73;;;3.43;;
8584;SDS011;7180;52.742;11.420;2022-09-03T14:52:00;4.47;;;4.07;;
8584;SDS011;7180;52.742;11.420;2022-09-03T15:05:08;3.93;;;3.63;;
8584;SDS011;7180;52.742;11.420;2022-09-03T15:07:40;4.73;;;4.43;;
8584;SDS011;7180;52.742;11.420;2022-09-03T15:12:51;4.83;;;4.63;;
8584;SDS011;7180;52.742;11.420;2022-09-03T15:23:18;4.90;;;4.60;;
8584;SDS011;7180;52.742;11.420;2022-09-03T15:28:32;4.90;;;4.70;;
8584;SDS011;7180;52.742;11.420;2022-09-03T15:31:09;5.13;;;4.77;;
8584;SDS011;7180;52.742;11.420;2022-09-03T15:36:16;5.43;;;5.20;;
8584;SDS011;7180;52.742;11.420;2022-09-03T15:38:44;5.17;;;4.87;;
8584;SDS011;7180;52.742;11.420;2022-09-03T15:41:20;5.53;;;5.13;;
8584;SDS011;7180;52.742;11.420;2022-09-03T15:43:48;5.33;;;5.03;;
8584;SDS011;7180;52.742;11.420;2022-09-03T15:46:37;5.43;;;5.00;;
8584;SDS011;7180;52.742;11.420;2022-09-03T15:51:29;5.60;;;5.20;;
8584;SDS011;7180;52.742;11.420;2022-09-03T15:57:15;5.13;;;4.83;;
8584;SDS011;7180;52.742;11.420;2022-09-03T15:59:53;5.33;;;5.00;;
8584;SDS011;7180;52.742;11.420;2022-09-03T16:15:16;5.20;;;4.80;;
8584;SDS011;7180;52.742;11.420;2022-09-03T16:20:35;5.50;;;5.17;;
8584;SDS011;7180;52.742;11.420;2022-09-03T16:25:33;6.33;;;5.97;;
8584;SDS011;7180;52.742;11.420;2022-09-03T16:28:02;5.90;;;5.60;;
8584;SDS011;7180;52.742;11.420;2022-09-03T16:33:12;6.10;;;5.80;;
8584;SDS011;7180;52.742;11.420;2022-09-03T16:38:21;6.10;;;5.70;;
8584;SDS011;7180;52.742;11.420;2022-09-03T16:48:39;6.40;;;5.90;;
8584;SDS011;7180;52.742;11.420;2022-09-03T16:56:29;5.70;;;5.40;;
8584;SDS011;7180;52.742;11.420;2022-09-03T16:59:04;5.80;;;5.40;;
8584;SDS011;7180;52.742;11.420;2022-09-03T17:09:32;5.67;;;5.37;;
8584;SDS011;7180;52.742;11.420;2022-09-03T17:12:07;5.60;;;5.30;;
8584;SDS011;7180;52.742;11.420;2022-09-03T17:24:55;5.70;;;5.40;;
8584;SDS011;7180;52.742;11.420;2022-09-03T17:27:42;5.27;;;5.03;;
8584;SDS011;7180;52.742;11.420;2022-09-03T17:30:25;5.47;;;5.17;;
8584;SDS011;7180;52.742;11.420;2022-09-03T17:33:10;5.70;;;5.40;;
8584;SDS011;7180;52.742;11.420;2022-09-03T17:35:58;5.53;;;5.23;;
8584;SDS011;7180;52.742;11.420;2022-09-03T17:38:38;5.70;;;5.23;;
8584;SDS011;7180;52.742;11.420;2022-09-03T17:48:59;5.10;;;4.90;;
8584;SDS011;7180;52.742;11.420;2022-09-03T17:51:41;5.67;;;5.23;;
8584;SDS011;7180;52.742;11.420;2022-09-03T17:56:55;4.80;;;4.60;;
8584;SDS011;7180;52.742;11.420;2022-09-03T18:02:15;5.40;;;5.10;;
8584;SDS011;7180;52.742;11.420;2022-09-03T18:04:47;5.20;;;4.90;;
8584;SDS011;7180;52.742;11.420;2022-09-03T18:07:19;5.40;;;5.10;;
8584;SDS011;7180;52.742;11.420;2022-09-03T18:12:34;5.10;;;4.80;;
8584;SDS011;7180;52.742;11.420;2022-09-03T18:15:16;5.20;;;4.90;;
8584;SDS011;7180;52.742;11.420;2022-09-03T18:20:15;5.00;;;4.67;;
8584;SDS011;7180;52.742;11.420;2022-09-03T18:25:43;5.50;;;5.20;;
8584;SDS011;7180;52.742;11.420;2022-09-03T18:28:31;4.70;;;4.50;;
8584;SDS011;7180;52.742;11.420;2022-09-03T18:31:17;5.20;;;4.90;;
8584;SDS011;7180;52.742;11.420;2022-09-03T18:34:01;5.30;;;5.10;;
8584;SDS011;7180;52.742;11.420;2022-09-03T18:36:45;5.30;;;5.00;;
8584;SDS011;7180;52.742;11.420;2022-09-03T18:39:29;5.60;;;5.30;;
8584;SDS011;7180;52.742;11.420;2022-09-03T18:42:26;5.40;;;5.20;;
8584;SDS011;7180;52.742;11.420;2022-09-03T18:45:16;5.30;;;5.03;;
8584;SDS011;7180;52.742;11.420;2022-09-03T18:48:14;5.63;;;5.33;;